Time;durP1;ratioP1;P1;durP2;ratioP2;P2;SDS_P1;SDS_P2;PMS_P1;PMS_P2;Temp;Humidity;BMP_temperature;BMP_pressure;BME280_temperature;BME280_humidity;BME280_pressure;Samples;Min_cycle;Max_cycle;Signal;HPM_P1;HPM_P2
2023/02/18 00:01:21;;;;;;;18.42;2.58;;;6.80;99.90;;;;;;5091632;28;20032;-80
2023/02/18 00:03:49;;;;;;;17.40;2.58;;;6.80;99.90;;;;;;5071737;28;20136;-80
2023/02/18 00:06:25;;;;;;;9.85;2.00;;;6.80;99.90;;;;;;5090908;28;20036;-80
2023/02/18 00:08:52;;;;;;;11.38;2.50;;;6.80;99.90;;;;;;5091813;28;20039;-80
2023/02/18 00:11:20;;;;;;;17.15;3.25;;;6.90;99.90;;;;;;5071800;28;20052;-80
2023/02/18 00:13:56;;;;;;;11.32;2.30;;;6.90;99.90;;;;;;5072204;28;20076;-80
2023/02/18 00:16:24;;;;;;;15.30;2.40;;;6.90;99.90;;;;;;5099533;28;20044;-80
2023/02/18 00:18:55;;;;;;;17.67;3.72;;;6.90;99.90;;;;;;5064093;28;20079;-80
2023/02/18 00:21:23;;;;;;;12.68;2.45;;;6.90;99.90;;;;;;5072007;28;20389;-80
2023/02/18 00:23:50;;;;;;;13.40;1.90;;;6.90;99.90;;;;;;5077443;28;20098;-80
2023/02/18 00:26:18;;;;;;;14.45;2.45;;;7.00;99.90;;;;;;5069382;28;20493;-80
2023/02/18 00:28:47;;;;;;;15.25;2.70;;;7.00;99.90;;;;;;5098609;28;20040;-80
2023/02/18 00:31:17;;;;;;;12.43;2.13;;;7.00;99.90;;;;;;5092004;28;20118;-79
2023/02/18 00:33:44;;;;;;;13.68;2.60;;;7.10;99.90;;;;;;5081210;28;20036;-80
2023/02/18 00:36:14;;;;;;;11.32;2.10;;;7.00;99.90;;;;;;5091742;28;20123;-80
2023/02/18 00:38:49;;;;;;;9.80;2.03;;;7.00;99.90;;;;;;5058850;28;20452;-80
2023/02/18 00:41:18;;;;;;;17.48;2.53;;;7.00;99.90;;;;;;5109102;28;20488;-79
2023/02/18 00:43:44;;;;;;;17.50;2.58;;;7.00;99.90;;;;;;5086519;28;20055;-79
2023/02/18 00:46:12;;;;;;;14.70;2.42;;;7.00;99.90;;;;;;5042176;28;20044;-80
2023/02/18 00:48:39;;;;;;;16.45;2.80;;;7.00;99.90;;;;;;5091054;28;20083;-79
2023/02/18 00:51:07;;;;;;;14.25;2.50;;;7.00;99.90;;;;;;5094903;28;20094;-80
2023/02/18 00:53:34;;;;;;;15.05;2.22;;;6.90;99.90;;;;;;5085278;28;20094;-80
2023/02/18 00:56:01;;;;;;;16.88;2.28;;;6.90;99.90;;;;;;5074654;28;20068;-80
2023/02/18 00:58:28;;;;;;;16.95;2.72;;;6.80;99.90;;;;;;5042921;28;20500;-80
2023/02/18 01:00:55;;;;;;;19.50;2.50;;;6.80;99.90;;;;;;5091429;28;20123;-80
2023/02/18 01:03:22;;;;;;;15.98;2.05;;;6.80;99.90;;;;;;5075146;28;20044;-80
2023/02/18 01:05:50;;;;;;;10.55;2.03;;;6.70;99.90;;;;;;5086375;28;20462;-80
2023/02/18 01:08:19;;;;;;;12.77;2.30;;;6.70;99.90;;;;;;5090197;28;20825;-79
2023/02/18 01:10:51;;;;;;;10.82;2.00;;;6.60;99.90;;;;;;5067330;28;20052;-79
2023/02/18 01:13:18;;;;;;;8.82;2.10;;;6.60;99.90;;;;;;5078325;28;20037;-80
2023/02/18 01:15:48;;;;;;;9.95;2.00;;;6.50;99.90;;;;;;5074936;28;20037;-80
2023/02/18 01:18:15;;;;;;;10.77;1.83;;;6.50;99.90;;;;;;5091476;28;20040;-80
2023/02/18 01:20:43;;;;;;;11.80;1.98;;;6.50;99.90;;;;;;5078193;28;20078;-80
2023/02/18 01:23:10;;;;;;;13.07;2.55;;;6.40;99.90;;;;;;5092576;28;20040;-79
2023/02/18 01:25:37;;;;;;;12.82;2.30;;;6.40;99.90;;;;;;5077922;28;20051;-79
2023/02/18 01:28:07;;;;;;;17.83;2.13;;;6.40;99.90;;;;;;5091583;28;20131;-80
2023/02/18 01:30:34;;;;;;;15.23;2.10;;;6.30;99.90;;;;;;5074284;28;20511;-80
2023/02/18 01:33:01;;;;;;;16.95;2.25;;;6.30;99.90;;;;;;5074950;28;20068;-80
2023/02/18 01:35:28;;;;;;;13.35;2.17;;;6.30;99.90;;;;;;5057930;28;20076;-79
2023/02/18 01:37:55;;;;;;;13.00;2.20;;;6.40;99.90;;;;;;5057845;28;20032;-79
2023/02/18 01:40:24;;;;;;;10.88;2.45;;;6.40;99.90;;;;;;5073919;28;20533;-80
2023/02/18 01:42:51;;;;;;;12.40;1.80;;;6.40;99.90;;;;;;5079670;28;20036;-79
2023/02/18 01:45:33;;;;;;;13.07;2.15;;;6.50;99.90;;;;;;5093908;28;20046;-79
2023/02/18 01:48:15;;;;;;;13.90;2.22;;;6.50;99.90;;;;;;5091930;28;20408;-81
2023/02/18 01:50:55;;;;;;;12.70;2.60;;;6.60;99.90;;;;;;5080112;28;20408;-79
2023/02/18 01:54:00;;;;;;;9.50;2.00;;;6.60;99.90;;;;;;5086994;28;20246;-79
2023/02/18 01:56:39;;;;;;;16.35;2.60;;;6.60;99.90;;;;;;5074078;28;20454;-79
2023/02/18 01:59:11;;;;;;;13.95;2.40;;;6.60;99.90;;;;;;5090815;28;20171;-80
2023/02/18 02:01:41;;;;;;;19.25;2.25;;;6.70;99.90;;;;;;5080388;28;20040;-79
2023/02/18 02:04:07;;;;;;;15.20;2.28;;;6.70;99.90;;;;;;5094230;28;20047;-80
2023/02/18 02:06:34;;;;;;;11.75;2.20;;;6.70;99.90;;;;;;5073548;28;20412;-79
2023/02/18 02:09:03;;;;;;;12.95;2.10;;;6.80;99.90;;;;;;5057530;28;20036;-79
2023/02/18 02:12:01;;;;;;;17.90;2.63;;;6.80;99.90;;;;;;5086622;28;20052;-80
2023/02/18 02:14:30;;;;;;;13.73;2.90;;;6.80;99.90;;;;;;5084885;28;20799;-80
2023/02/18 02:17:12;;;;;;;10.07;1.90;;;6.80;99.90;;;;;;5093665;28;20062;-80
2023/02/18 02:19:56;;;;;;;16.83;1.95;;;6.90;99.90;;;;;;5093652;28;20460;-79
2023/02/18 02:22:42;;;;;;;12.23;2.25;;;6.90;99.90;;;;;;5090201;28;20043;-79
2023/02/18 02:25:36;;;;;;;10.10;2.08;;;6.90;99.90;;;;;;5073136;28;20040;-80
2023/02/18 02:28:21;;;;;;;10.93;2.38;;;6.90;99.90;;;;;;5104084;28;20415;-80
2023/02/18 02:31:15;;;;;;;12.65;2.88;;;7.00;99.90;;;;;;5089824;28;20044;-79
2023/02/18 02:33:51;;;;;;;15.73;2.55;;;6.90;99.90;;;;;;5099022;28;20043;-79
2023/02/18 02:36:35;;;;;;;12.65;2.20;;;7.00;99.90;;;;;;5095694;28;20066;-79
2023/02/18 02:39:38;;;;;;;12.18;2.38;;;7.00;99.90;;;;;;5089060;28;20048;-80
2023/02/18 02:42:40;;;;;;;11.75;2.40;;;7.00;99.90;;;;;;5048547;28;20416;-79
2023/02/18 02:45:35;;;;;;;16.38;2.50;;;7.10;99.90;;;;;;5089184;28;20128;-80
2023/02/18 02:48:14;;;;;;;13.33;2.63;;;7.00;99.90;;;;;;5025153;28;20125;-79
2023/02/18 02:50:59;;;;;;;9.65;1.83;;;7.00;99.90;;;;;;5073011;28;20049;-80
2023/02/18 02:53:29;;;;;;;16.80;2.55;;;7.10;99.90;;;;;;5089586;28;20028;-79
2023/02/18 02:55:56;;;;;;;14.90;3.05;;;7.00;99.90;;;;;;5072772;28;20037;-79
2023/02/18 02:58:23;;;;;;;18.02;3.60;;;7.00;99.90;;;;;;5070805;28;20507;-80
2023/02/18 03:00:58;;;;;;;13.30;2.65;;;7.10;99.90;;;;;;5056180;28;20075;-80
2023/02/18 03:03:33;;;;;;;14.40;2.33;;;7.10;99.90;;;;;;5088998;28;20554;-80
2023/02/18 03:06:38;;;;;;;15.63;2.70;;;7.10;99.90;;;;;;5072699;28;20048;-80
2023/02/18 03:09:33;;;;;;;16.40;2.83;;;7.10;99.90;;;;;;5084227;28;20090;-79
2023/02/18 03:12:11;;;;;;;16.13;2.73;;;7.00;99.90;;;;;;5089265;28;20051;-80
2023/02/18 03:15:09;;;;;;;16.75;2.53;;;7.00;99.90;;;;;;5072678;28;20037;-80
2023/02/18 03:18:04;;;;;;;11.43;2.72;;;7.00;99.90;;;;;;5072687;28;20040;-80
2023/02/18 03:20:38;;;;;;;12.20;2.10;;;7.00;99.90;;;;;;5072351;28;20048;-79
2023/02/18 03:23:10;;;;;;;9.63;2.92;;;7.00;99.90;;;;;;5072411;28;20040;-79
2023/02/18 03:25:39;;;;;;;16.58;3.08;;;7.00;99.90;;;;;;5088841;28;20052;-79
2023/02/18 03:28:13;;;;;;;12.60;2.80;;;7.00;99.90;;;;;;5072359;28;20128;-79
2023/02/18 03:30:42;;;;;;;14.10;2.53;;;7.00;99.90;;;;;;5072629;28;20044;-79
2023/02/18 03:33:15;;;;;;;16.20;3.35;;;7.00;99.90;;;;;;5083168;28;20139;-79
2023/02/18 03:35:43;;;;;;;15.02;3.53;;;7.00;99.90;;;;;;5109024;28;20116;-80
2023/02/18 03:38:29;;;;;;;12.93;3.25;;;7.10;99.90;;;;;;5075731;28;20056;-79
2023/02/18 03:40:56;;;;;;;15.93;3.88;;;7.00;99.90;;;;;;5075721;28;20115;-79
2023/02/18 03:43:23;;;;;;;22.63;4.28;;;7.10;99.90;;;;;;5072208;28;20044;-80
2023/02/18 03:45:50;;;;;;;15.77;4.05;;;7.10;99.90;;;;;;5072357;28;20508;-79
2023/02/18 03:48:17;;;;;;;18.40;4.28;;;7.10;99.90;;;;;;5055779;28;20041;-80
2023/02/18 03:50:43;;;;;;;19.63;4.60;;;7.10;99.90;;;;;;5072075;28;20064;-80
2023/02/18 03:53:10;;;;;;;18.70;4.60;;;7.10;99.90;;;;;;5056063;28;20537;-80
2023/02/18 03:55:37;;;;;;;16.70;5.00;;;7.10;99.90;;;;;;5055288;28;20129;-79
2023/02/18 03:58:03;;;;;;;16.75;5.07;;;7.10;99.90;;;;;;5072165;28;20560;-79
2023/02/18 04:00:30;;;;;;;19.67;5.63;;;7.10;99.90;;;;;;5038867;28;20086;-79
2023/02/18 04:02:57;;;;;;;17.10;5.57;;;7.10;99.90;;;;;;5039171;28;20445;-80
2023/02/18 04:05:24;;;;;;;18.67;5.63;;;7.20;99.90;;;;;;5045884;28;20118;-79
2023/02/18 04:07:50;;;;;;;17.48;5.07;;;7.10;99.90;;;;;;5055600;28;20043;-80
2023/02/18 04:10:17;;;;;;;15.63;6.15;;;7.20;99.90;;;;;;5055377;28;20056;-79
2023/02/18 04:12:45;;;;;;;17.45;6.07;;;7.20;99.90;;;;;;5089193;28;20055;-79
2023/02/18 04:15:14;;;;;;;19.02;6.45;;;7.20;99.90;;;;;;5091824;28;20036;-80
2023/02/18 04:17:41;;;;;;;19.38;7.28;;;7.20;99.90;;;;;;5043111;28;20032;-79
2023/02/18 04:20:08;;;;;;;20.95;6.72;;;7.20;99.90;;;;;;5043199;28;20090;-79
2023/02/18 04:22:35;;;;;;;27.50;6.85;;;7.30;99.90;;;;;;5062694;28;20504;-79
2023/02/18 04:25:02;;;;;;;20.35;7.15;;;7.30;99.90;;;;;;5079367;28;20139;-79
2023/02/18 04:27:29;;;;;;;17.52;6.40;;;7.30;99.90;;;;;;5090836;28;20552;-80
2023/02/18 04:29:55;;;;;;;20.30;6.82;;;7.30;99.90;;;;;;5075517;28;20048;-79
2023/02/18 04:32:22;;;;;;;19.50;7.22;;;7.30;99.90;;;;;;5059306;28;20041;-80
2023/02/18 04:34:49;;;;;;;23.63;7.20;;;7.30;99.90;;;;;;5082676;28;20040;-80
2023/02/18 04:37:16;;;;;;;25.20;8.52;;;7.30;99.90;;;;;;5078750;28;20094;-80
2023/02/18 04:39:42;;;;;;;18.67;7.55;;;7.30;99.90;;;;;;5061834;28;20552;-80
2023/02/18 04:42:09;;;;;;;24.13;7.65;;;7.30;99.90;;;;;;5058995;28;20085;-80
2023/02/18 04:44:36;;;;;;;29.80;8.02;;;7.30;99.90;;;;;;5058264;28;20109;-80
2023/02/18 04:47:05;;;;;;;17.05;7.90;;;7.30;99.90;;;;;;5093785;28;20448;-80
2023/02/18 04:49:33;;;;;;;27.02;8.98;;;7.30;99.90;;;;;;5067822;28;20036;-80
2023/02/18 04:52:00;;;;;;;22.30;7.85;;;7.30;99.90;;;;;;5075174;28;20074;-80
2023/02/18 04:54:26;;;;;;;27.38;8.27;;;7.30;99.90;;;;;;5081963;28;20071;-81
2023/02/18 04:56:53;;;;;;;35.10;8.85;;;7.30;99.90;;;;;;5078475;28;20039;-80
2023/02/18 04:59:20;;;;;;;30.30;8.73;;;7.30;99.90;;;;;;5090832;28;20075;-80
2023/02/18 05:01:47;;;;;;;20.60;8.20;;;7.30;99.90;;;;;;5074337;28;20503;-80
2023/02/18 05:04:13;;;;;;;26.63;9.13;;;7.30;99.90;;;;;;5058615;28;20047;-80
2023/02/18 05:06:41;;;;;;;20.20;8.27;;;7.30;99.90;;;;;;5076457;28;20507;-81
2023/02/18 05:09:09;;;;;;;25.02;8.40;;;7.20;99.90;;;;;;5058932;28;20043;-80
2023/02/18 05:11:36;;;;;;;28.08;8.32;;;7.20;99.90;;;;;;5074413;28;20189;-81
2023/02/18 05:14:02;;;;;;;20.60;8.70;;;7.30;99.90;;;;;;5058150;28;20131;-80
2023/02/18 05:16:29;;;;;;;32.28;9.55;;;7.20;99.90;;;;;;5070693;28;20125;-80
2023/02/18 05:18:56;;;;;;;30.35;9.45;;;7.20;99.90;;;;;;5074735;28;20182;-80
2023/02/18 05:21:23;;;;;;;29.52;9.85;;;7.30;99.90;;;;;;5058243;28;20123;-80
2023/02/18 05:23:50;;;;;;;19.92;9.25;;;7.30;99.90;;;;;;5073327;28;20143;-80
2023/02/18 05:26:16;;;;;;;22.55;10.13;;;7.30;99.90;;;;;;5062281;28;20032;-80
2023/02/18 05:28:43;;;;;;;31.35;9.57;;;7.30;99.90;;;;;;5077894;28;20050;-80
2023/02/18 05:31:10;;;;;;;30.88;10.80;;;7.30;99.90;;;;;;5090418;28;20534;-79
2023/02/18 05:33:36;;;;;;;24.48;11.40;;;7.30;99.90;;;;;;5057927;28;20849;-80
2023/02/18 05:36:03;;;;;;;28.25;11.05;;;7.30;99.90;;;;;;5057691;28;20136;-80
2023/02/18 05:38:30;;;;;;;32.35;12.70;;;7.30;99.90;;;;;;5074543;28;20039;-80
2023/02/18 05:40:57;;;;;;;39.22;14.45;;;7.30;99.90;;;;;;5068580;28;20036;-80
2023/02/18 05:43:24;;;;;;;44.75;16.17;;;7.40;99.90;;;;;;5077285;28;20046;-79
2023/02/18 05:45:50;;;;;;;41.40;17.13;;;7.40;99.90;;;;;;5103973;28;20045;-79
2023/02/18 05:48:17;;;;;;;40.92;17.38;;;7.40;99.90;;;;;;5057815;28;20131;-79
2023/02/18 05:50:44;;;;;;;41.22;17.50;;;7.50;99.90;;;;;;5043679;28;20048;-79
2023/02/18 05:53:11;;;;;;;50.40;18.92;;;7.50;99.90;;;;;;5052523;28;20042;-79
2023/02/18 05:55:37;;;;;;;53.92;19.52;;;7.50;99.90;;;;;;5089681;28;20086;-80
2023/02/18 05:58:05;;;;;;;52.75;20.17;;;7.50;99.90;;;;;;5069374;28;20037;-79
2023/02/18 06:00:31;;;;;;;50.47;19.60;;;7.60;99.90;;;;;;5057251;28;20045;-80
2023/02/18 06:02:58;;;;;;;57.75;21.85;;;7.60;99.90;;;;;;5070386;28;20044;-79
2023/02/18 06:05:25;;;;;;;56.50;23.00;;;7.70;99.90;;;;;;5063028;28;20043;-79
2023/02/18 06:07:52;;;;;;;66.38;23.17;;;7.70;99.90;;;;;;5056929;28;20044;-80
2023/02/18 06:10:18;;;;;;;52.10;22.85;;;7.70;99.90;;;;;;5047492;28;20048;-80
2023/02/18 06:12:45;;;;;;;66.15;22.98;;;7.70;99.90;;;;;;5073241;28;20045;-80
2023/02/18 06:15:12;;;;;;;53.67;21.25;;;7.70;99.90;;;;;;5074272;28;20041;-80
2023/02/18 06:17:39;;;;;;;41.15;20.48;;;7.80;99.90;;;;;;5058662;28;20099;-80
2023/02/18 06:20:06;;;;;;;49.40;19.98;;;7.70;99.90;;;;;;5040840;28;20052;-80
2023/02/18 06:22:33;;;;;;;55.22;20.33;;;7.80;99.90;;;;;;5047541;28;20036;-80
2023/02/18 06:24:59;;;;;;;45.60;17.50;;;7.80;99.90;;;;;;5073223;28;20040;-80
2023/02/18 06:27:26;;;;;;;44.28;16.88;;;7.90;99.90;;;;;;5056725;28;20052;-80
2023/02/18 06:29:53;;;;;;;38.65;16.90;;;7.90;99.90;;;;;;5072976;28;20036;-80
2023/02/18 06:32:19;;;;;;;36.03;14.73;;;7.90;99.90;;;;;;5046208;28;20511;-80
2023/02/18 06:34:46;;;;;;;38.45;14.57;;;7.90;99.90;;;;;;5040407;28;20393;-80
2023/02/18 06:37:13;;;;;;;34.33;13.55;;;7.90;99.90;;;;;;5056314;28;20144;-80
2023/02/18 06:39:40;;;;;;;38.10;13.95;;;7.90;99.90;;;;;;5040385;28;20044;-80
2023/02/18 06:42:06;;;;;;;32.78;12.68;;;8.00;99.90;;;;;;5061109;28;20076;-80
2023/02/18 06:44:33;;;;;;;34.63;13.02;;;8.10;99.90;;;;;;5072546;28;20047;-80
2023/02/18 06:47:00;;;;;;;34.78;11.75;;;8.10;99.90;;;;;;5047743;28;20523;-80
2023/02/18 06:49:26;;;;;;;31.60;11.32;;;8.10;99.90;;;;;;5072794;28;20550;-80
2023/02/18 06:51:53;;;;;;;26.35;10.00;;;8.20;99.90;;;;;;5039902;28;20043;-80
2023/02/18 06:54:20;;;;;;;27.38;9.38;;;8.20;99.90;;;;;;5072177;28;20032;-80
2023/02/18 06:56:47;;;;;;;21.45;8.93;;;8.30;99.90;;;;;;5065084;28;20036;-80
2023/02/18 06:59:13;;;;;;;24.70;8.10;;;8.30;99.90;;;;;;5080898;28;20074;-80
2023/02/18 07:01:40;;;;;;;25.92;8.10;;;8.30;99.90;;;;;;5070129;28;20044;-80
2023/02/18 07:04:07;;;;;;;23.13;7.75;;;8.40;99.90;;;;;;5055580;28;20044;-80
2023/02/18 07:06:33;;;;;;;22.95;6.70;;;8.40;99.90;;;;;;5065288;28;20068;-80
2023/02/18 07:09:00;;;;;;;15.65;5.95;;;8.50;99.90;;;;;;5070211;28;20064;-80
2023/02/18 07:11:27;;;;;;;16.40;6.25;;;8.50;99.90;;;;;;5073199;28;20404;-80
2023/02/18 07:13:54;;;;;;;17.38;6.75;;;8.60;99.90;;;;;;5075487;28;20040;-80
2023/02/18 07:16:20;;;;;;;15.50;6.03;;;8.60;99.90;;;;;;5089277;28;20103;-79
2023/02/18 07:18:47;;;;;;;13.90;5.75;;;9.10;99.90;;;;;;5066522;28;20119;-80
2023/02/18 07:21:14;;;;;;;13.32;5.40;;;8.70;99.90;;;;;;5060957;28;20037;-80
2023/02/18 07:23:40;;;;;;;15.35;5.60;;;8.70;99.90;;;;;;5055700;28;20040;-80
2023/02/18 07:26:12;;;;;;;17.25;5.57;;;8.70;99.90;;;;;;5055476;28;20036;-79
2023/02/18 07:28:40;;;;;;;11.73;5.13;;;8.70;99.90;;;;;;5077885;28;20045;-80
2023/02/18 07:31:07;;;;;;;19.20;5.85;;;8.80;99.90;;;;;;5074515;28;20062;-80
2023/02/18 07:33:34;;;;;;;14.52;6.05;;;8.80;99.90;;;;;;5062475;28;20033;-80
2023/02/18 07:36:02;;;;;;;11.60;5.95;;;8.80;99.90;;;;;;5057687;28;20079;-80
2023/02/18 07:38:29;;;;;;;15.45;6.88;;;8.90;99.90;;;;;;5074932;28;20041;-80
2023/02/18 07:40:56;;;;;;;13.13;5.85;;;9.00;99.90;;;;;;5100275;28;20428;-80
2023/02/18 07:43:23;;;;;;;16.75;7.55;;;9.00;99.90;;;;;;5090341;28;20075;-80
2023/02/18 07:45:50;;;;;;;17.73;7.53;;;9.00;99.90;;;;;;5085561;28;20071;-80
2023/02/18 07:48:17;;;;;;;17.20;7.60;;;9.10;99.90;;;;;;5110041;28;20804;-80
2023/02/18 07:50:45;;;;;;;16.25;7.55;;;9.10;99.90;;;;;;5070344;28;20037;-80
2023/02/18 07:53:16;;;;;;;16.35;8.05;;;9.10;99.90;;;;;;5089876;28;20389;-80
2023/02/18 07:55:48;;;;;;;18.40;8.35;;;9.10;99.90;;;;;;5075443;28;20044;-80
2023/02/18 07:58:21;;;;;;;16.50;7.43;;;9.20;99.90;;;;;;5069967;28;20037;-80
2023/02/18 08:00:48;;;;;;;16.85;7.80;;;9.20;99.90;;;;;;5073088;28;20072;-80
2023/02/18 08:03:17;;;;;;;13.68;6.97;;;9.20;99.90;;;;;;5105344;28;20040;-79
2023/02/18 08:05:44;;;;;;;17.27;7.50;;;9.30;99.90;;;;;;5078907;28;20085;-79
2023/02/18 08:08:16;;;;;;;12.85;6.60;;;9.30;99.90;;;;;;5095307;28;20086;-80
2023/02/18 08:10:43;;;;;;;11.52;5.53;;;9.30;99.90;;;;;;5095506;28;20040;-79
2023/02/18 08:13:09;;;;;;;14.55;6.25;;;9.40;99.90;;;;;;5071978;28;20037;-79
2023/02/18 08:15:37;;;;;;;14.23;6.63;;;9.40;99.90;;;;;;5048553;28;20036;-80
2023/02/18 08:18:05;;;;;;;13.13;6.32;;;9.40;99.90;;;;;;5098466;28;20039;-80
2023/02/18 08:20:35;;;;;;;14.20;5.72;;;9.40;99.90;;;;;;5063088;28;20040;-80
2023/02/18 08:23:03;;;;;;;11.70;5.35;;;9.40;99.90;;;;;;5095230;28;20108;-80
2023/02/18 08:25:30;;;;;;;13.85;6.00;;;9.40;99.90;;;;;;5048776;28;20063;-80
2023/02/18 08:27:58;;;;;;;9.68;5.43;;;9.40;99.90;;;;;;5076472;28;20040;-79
2023/02/18 08:30:25;;;;;;;15.35;5.25;;;9.40;99.90;;;;;;5089368;28;20052;-80
2023/02/18 08:32:51;;;;;;;11.02;4.90;;;9.40;99.90;;;;;;5083719;28;20036;-79
2023/02/18 08:35:18;;;;;;;12.25;5.13;;;9.40;99.90;;;;;;5078645;28;20040;-79
2023/02/18 08:37:45;;;;;;;13.00;5.05;;;9.40;99.90;;;;;;5075197;28;20040;-79
2023/02/18 08:40:13;;;;;;;10.88;5.15;;;9.40;99.90;;;;;;5075112;28;20049;-79
2023/02/18 08:42:39;;;;;;;11.13;4.63;;;9.40;99.90;;;;;;5058423;28;20044;-79
2023/02/18 08:45:07;;;;;;;11.13;5.05;;;9.40;99.90;;;;;;5042017;28;20048;-79
2023/02/18 08:47:33;;;;;;;10.40;4.78;;;9.40;99.90;;;;;;5045703;28;20914;-79
2023/02/18 08:50:00;;;;;;;10.52;4.50;;;9.30;99.90;;;;;;5077405;28;20040;-79
2023/02/18 08:52:27;;;;;;;12.25;4.38;;;9.30;99.90;;;;;;5077631;28;20033;-79
2023/02/18 08:54:53;;;;;;;9.52;4.10;;;9.30;99.90;;;;;;5111858;28;20043;-79
2023/02/18 08:57:20;;;;;;;10.32;3.78;;;9.30;99.90;;;;;;5063514;28;20036;-79
2023/02/18 08:59:47;;;;;;;12.43;4.30;;;9.20;99.90;;;;;;5058060;28;20067;-79
2023/02/18 09:02:14;;;;;;;9.30;4.05;;;9.20;99.90;;;;;;5050262;28;20382;-79
2023/02/18 09:04:41;;;;;;;13.15;3.78;;;9.20;99.90;;;;;;5091685;28;20449;-79
2023/02/18 09:07:07;;;;;;;8.07;3.60;;;9.20;99.90;;;;;;5069312;28;20123;-79
2023/02/18 09:09:34;;;;;;;8.80;3.33;;;9.20;99.90;;;;;;5081073;28;20041;-79
2023/02/18 09:12:01;;;;;;;12.30;3.70;;;9.20;99.90;;;;;;5056815;28;20386;-79
2023/02/18 09:14:28;;;;;;;11.73;3.67;;;9.20;99.90;;;;;;5073465;28;20043;-79
2023/02/18 09:16:57;;;;;;;10.35;3.50;;;9.20;99.90;;;;;;5088063;28;20041;-79
2023/02/18 09:19:24;;;;;;;8.88;3.33;;;9.20;99.90;;;;;;5073070;28;20123;-79
2023/02/18 09:21:55;;;;;;;8.40;3.17;;;9.20;99.90;;;;;;5069778;28;20802;-79
2023/02/18 09:24:23;;;;;;;10.20;3.40;;;9.20;99.90;;;;;;5073425;28;20040;-79
2023/02/18 09:26:50;;;;;;;9.40;3.53;;;9.20;99.90;;;;;;5040810;28;20095;-79
2023/02/18 09:29:18;;;;;;;8.68;3.40;;;9.20;99.90;;;;;;5072739;28;20889;-79
2023/02/18 09:31:45;;;;;;;11.45;3.70;;;9.30;99.90;;;;;;5056782;28;20029;-79
2023/02/18 09:34:12;;;;;;;6.90;2.97;;;9.20;99.90;;;;;;5089544;28;20036;-79
2023/02/18 09:36:39;;;;;;;5.57;2.63;;;9.20;99.90;;;;;;5073860;28;20091;-79
2023/02/18 09:39:06;;;;;;;5.57;2.42;;;9.20;99.90;;;;;;5072954;28;20032;-80
2023/02/18 09:41:40;;;;;;;6.07;2.35;;;9.20;99.90;;;;;;5073219;28;20055;-79
2023/02/18 09:44:17;;;;;;;7.47;2.70;;;9.20;99.90;;;;;;5072707;28;20048;-80
2023/02/18 09:47:03;;;;;;;5.75;2.05;;;9.20;99.90;;;;;;5089621;28;20500;-80
2023/02/18 09:49:34;;;;;;;6.63;2.40;;;9.20;99.90;;;;;;5089781;28;20045;-80
2023/02/18 09:52:12;;;;;;;7.50;2.17;;;9.20;99.90;;;;;;5089984;28;20037;-80
2023/02/18 09:54:39;;;;;;;6.50;2.17;;;9.20;99.90;;;;;;5073040;28;20381;-80
2023/02/18 09:57:20;;;;;;;4.20;2.22;;;9.20;99.90;;;;;;5056299;28;20185;-80
2023/02/18 09:59:50;;;;;;;5.97;1.80;;;9.20;99.90;;;;;;5072944;28;20097;-79
2023/02/18 10:02:19;;;;;;;6.05;1.95;;;9.20;99.90;;;;;;5072672;28;20587;-80
2023/02/18 10:04:51;;;;;;;4.00;1.63;;;9.20;99.90;;;;;;5064087;28;20123;-80
2023/02/18 10:07:27;;;;;;;5.90;1.77;;;9.20;99.90;;;;;;5073172;28;20076;-79
2023/02/18 10:09:55;;;;;;;5.45;1.85;;;9.30;99.90;;;;;;5082871;28;20039;-80
2023/02/18 10:12:25;;;;;;;7.20;1.80;;;9.20;99.90;;;;;;5029851;28;1144796;-80
2023/02/18 10:14:54;;;;;;;4.95;1.73;;;9.20;99.90;;;;;;5051377;28;20049;-79
2023/02/18 10:17:28;;;;;;;3.72;1.58;;;9.20;99.90;;;;;;5050236;28;20036;-80
2023/02/18 10:19:56;;;;;;;5.95;2.03;;;9.20;99.90;;;;;;5068040;28;20036;-80
2023/02/18 10:22:25;;;;;;;9.13;1.83;;;9.20;99.90;;;;;;5036458;28;20049;-80
2023/02/18 10:24:56;;;;;;;4.57;1.55;;;9.30;99.90;;;;;;5028776;28;20049;-79
2023/02/18 10:27:25;;;;;;;7.28;1.52;;;9.20;99.90;;;;;;5065244;28;20049;-79
2023/02/18 10:29:54;;;;;;;9.10;1.92;;;9.20;99.90;;;;;;5069038;28;20135;-80
2023/02/18 10:32:35;;;;;;;7.70;1.77;;;9.30;99.90;;;;;;5062939;28;20033;-79
2023/02/18 10:35:14;;;;;;;6.88;1.75;;;9.30;99.90;;;;;;5065683;28;20064;-79
2023/02/18 10:38:03;;;;;;;13.48;2.20;;;9.30;99.90;;;;;;5049903;28;20029;-80
2023/02/18 10:40:39;;;;;;;14.45;2.40;;;9.30;99.90;;;;;;5065629;28;20046;-80
2023/02/18 10:43:21;;;;;;;12.30;2.33;;;9.40;99.90;;;;;;5084463;28;20068;-79
2023/02/18 10:46:00;;;;;;;7.60;2.05;;;9.40;99.90;;;;;;5055126;28;20073;-79
2023/02/18 10:48:44;;;;;;;10.68;2.03;;;9.50;99.90;;;;;;5049361;28;20049;-79
2023/02/18 10:51:27;;;;;;;9.82;2.05;;;9.50;99.90;;;;;;5065674;28;20049;-79
2023/02/18 10:53:54;;;;;;;9.70;2.00;;;9.60;99.90;;;;;;5049934;28;20041;-79
2023/02/18 10:56:39;;;;;;;10.75;1.83;;;9.60;99.90;;;;;;5049396;28;20036;-80
2023/02/18 10:59:24;;;;;;;11.93;1.80;;;9.60;99.90;;;;;;5061353;28;20036;-79
2023/02/18 11:02:16;;;;;;;8.63;1.90;;;9.60;99.90;;;;;;5086233;28;20082;-79
2023/02/18 11:04:44;;;;;;;11.55;2.03;;;9.70;99.90;;;;;;5059454;28;20835;-79
2023/02/18 11:07:15;;;;;;;7.40;2.08;;;9.70;99.90;;;;;;5068374;28;20048;-79
2023/02/18 11:09:51;;;;;;;8.45;1.70;;;9.80;99.90;;;;;;5068903;28;20037;-80
2023/02/18 11:12:53;;;;;;;12.48;2.15;;;9.80;99.90;;;;;;5088625;28;20085;-80
2023/02/18 11:15:23;;;;;;;12.00;2.47;;;9.80;99.90;;;;;;5034938;28;20099;-80
2023/02/18 11:17:53;;;;;;;13.48;1.98;;;9.80;99.90;;;;;;5085805;28;20032;-79
2023/02/18 11:20:31;;;;;;;10.52;2.05;;;9.80;99.90;;;;;;5088629;28;20409;-80
2023/02/18 11:23:19;;;;;;;10.65;1.90;;;9.90;99.90;;;;;;5091536;28;20040;-80
2023/02/18 11:26:05;;;;;;;7.40;1.80;;;9.90;99.90;;;;;;5089852;28;20040;-79
2023/02/18 11:28:40;;;;;;;9.23;1.95;;;10.00;99.90;;;;;;5073797;28;20090;-79
2023/02/18 11:31:08;;;;;;;7.82;1.92;;;10.00;99.90;;;;;;5082072;28;20047;-79
2023/02/18 11:33:42;;;;;;;9.38;1.95;;;10.00;99.90;;;;;;5071779;28;20119;-79
2023/02/18 11:36:23;;;;;;;9.82;2.05;;;10.00;99.90;;;;;;5088145;28;20071;-79
2023/02/18 11:39:13;;;;;;;8.13;1.70;;;10.10;99.90;;;;;;5096134;28;20036;-79
2023/02/18 11:41:45;;;;;;;11.75;1.90;;;10.10;99.90;;;;;;5085195;28;20481;-79
2023/02/18 11:44:31;;;;;;;11.57;2.33;;;10.10;99.90;;;;;;5080020;28;20427;-79
2023/02/18 11:47:18;;;;;;;12.80;2.60;;;10.20;99.90;;;;;;5103453;28;20462;-80
2023/02/18 11:50:08;;;;;;;6.95;1.52;;;10.20;99.90;;;;;;5079500;28;20389;-79
2023/02/18 11:52:44;;;;;;;7.25;1.80;;;10.20;99.90;;;;;;5085801;28;20055;-80
2023/02/18 11:55:26;;;;;;;10.05;2.05;;;10.30;99.90;;;;;;5091941;28;20040;-79
2023/02/18 11:57:57;;;;;;;8.55;1.77;;;10.30;99.90;;;;;;5098613;28;20045;-79
2023/02/18 12:00:52;;;;;;;8.80;1.77;;;10.40;99.90;;;;;;5080394;28;20047;-80
2023/02/18 12:03:31;;;;;;;9.55;1.77;;;10.40;99.90;;;;;;5100514;28;20044;-79
2023/02/18 12:06:02;;;;;;;8.65;1.90;;;10.30;99.90;;;;;;5101650;28;20036;-79
2023/02/18 12:08:34;;;;;;;8.77;1.80;;;10.30;99.90;;;;;;5090926;28;20040;-80
2023/02/18 12:11:05;;;;;;;7.90;1.70;;;10.40;99.90;;;;;;5080897;28;20072;-79
2023/02/18 12:13:47;;;;;;;11.07;2.15;;;10.40;99.90;;;;;;5071903;28;20052;-79
2023/02/18 12:16:25;;;;;;;11.68;1.90;;;10.40;99.90;;;;;;5071815;28;20048;-80
2023/02/18 12:19:07;;;;;;;9.45;1.80;;;10.40;99.90;;;;;;5078297;28;20116;-79
2023/02/18 12:21:54;;;;;;;7.05;1.90;;;10.50;99.90;;;;;;5071493;28;20040;-79
2023/02/18 12:24:30;;;;;;;10.07;1.83;;;10.50;99.90;;;;;;5056771;28;20045;-79
2023/02/18 12:27:11;;;;;;;9.30;1.80;;;10.50;99.90;;;;;;5071890;28;20515;-79
2023/02/18 12:29:56;;;;;;;8.98;1.83;;;10.50;99.90;;;;;;5088361;28;20037;-80
2023/02/18 12:32:34;;;;;;;6.78;1.70;;;10.50;99.90;;;;;;5085703;28;20055;-79
2023/02/18 12:35:42;;;;;;;9.77;2.33;;;10.60;99.90;;;;;;5094608;28;20771;-80
2023/02/18 12:38:09;;;;;;;8.10;1.77;;;10.60;99.90;;;;;;5031383;28;20490;-79
2023/02/18 12:41:05;;;;;;;9.90;1.83;;;10.70;99.90;;;;;;5029482;28;20045;-79
2023/02/18 12:43:47;;;;;;;8.93;1.67;;;10.70;99.90;;;;;;5056751;28;20045;-80
2023/02/18 12:46:46;;;;;;;12.75;2.03;;;10.80;99.90;;;;;;5075651;28;20040;-79
2023/02/18 12:49:31;;;;;;;5.22;1.52;;;10.90;99.90;;;;;;5031892;28;20057;-79
2023/02/18 12:52:07;;;;;;;6.53;1.63;;;10.90;99.90;;;;;;5075357;28;20051;-79
2023/02/18 12:55:05;;;;;;;10.98;2.00;;;10.90;99.90;;;;;;5075537;28;20075;-79
2023/02/18 12:58:04;;;;;;;12.43;1.95;;;10.90;99.90;;;;;;5095147;28;20481;-79
2023/02/18 13:00:44;;;;;;;9.13;1.92;;;10.90;99.90;;;;;;5095032;28;20044;-79
2023/02/18 13:03:32;;;;;;;7.25;1.50;;;11.00;99.90;;;;;;5095138;28;20044;-79
2023/02/18 13:06:08;;;;;;;7.35;1.48;;;11.00;99.90;;;;;;5094865;28;20127;-79
2023/02/18 13:08:35;;;;;;;8.73;1.40;;;11.00;99.90;;;;;;5094862;28;20044;-79
2023/02/18 13:11:23;;;;;;;3.83;1.33;;;11.10;99.90;;;;;;5095057;28;20040;-79
2023/02/18 13:14:08;;;;;;;7.57;1.70;;;11.20;99.90;;;;;;5099269;28;20057;-79